Time;durP1;ratioP1;P1;durP2;ratioP2;P2;SDS_P1;SDS_P2;PMS_P1;PMS_P2;Temp;Humidity;BMP_temperature;BMP_pressure;BME280_temperature;BME280_humidity;BME280_pressure;Samples;Min_cycle;Max_cycle;Signal;HPM_P1;HPM_P2
2023/12/01 00:01:31;;;;;;;13.70;10.80;;;15.60;57.20;;;;;;5054107;28;20211;-64
2023/12/01 00:03:57;;;;;;;14.40;9.85;;;15.60;57.40;;;;;;5053931;28;20578;-64
2023/12/01 00:06:22;;;;;;;13.13;10.27;;;15.60;57.30;;;;;;5054476;28;20225;-66
2023/12/01 00:08:48;;;;;;;13.13;9.95;;;15.60;57.20;;;;;;5053875;28;20225;-65
2023/12/01 00:11:13;;;;;;;14.40;10.23;;;15.60;57.20;;;;;;5054481;28;20179;-66
2023/12/01 00:13:39;;;;;;;14.60;10.50;;;15.50;57.20;;;;;;5054094;28;20175;-65
2023/12/01 00:16:05;;;;;;;14.88;10.43;;;15.50;57.30;;;;;;5053131;28;20171;-65
2023/12/01 00:18:30;;;;;;;13.95;10.88;;;15.50;57.30;;;;;;5054228;28;20183;-65
2023/12/01 00:20:56;;;;;;;15.48;11.02;;;15.50;57.20;;;;;;5054402;28;20712;-65
2023/12/01 00:23:21;;;;;;;14.23;10.90;;;15.50;57.10;;;;;;5053368;28;20183;-66
2023/12/01 00:25:47;;;;;;;15.48;11.43;;;15.50;57.10;;;;;;5054443;28;20179;-65
2023/12/01 00:28:13;;;;;;;14.82;11.20;;;15.40;57.00;;;;;;5054430;28;20199;-65
2023/12/01 00:30:39;;;;;;;14.57;10.98;;;15.30;57.10;;;;;;5053753;28;20210;-65
2023/12/01 00:33:04;;;;;;;13.63;10.18;;;15.40;57.00;;;;;;5054304;28;20198;-65
2023/12/01 00:35:30;;;;;;;14.50;10.77;;;15.40;57.00;;;;;;5053914;28;20615;-66
2023/12/01 00:37:56;;;;;;;16.42;12.35;;;15.40;57.00;;;;;;5052884;28;20171;-65
2023/12/01 00:40:22;;;;;;;14.80;11.57;;;15.40;57.10;;;;;;5054447;28;20211;-65
2023/12/01 00:42:47;;;;;;;15.60;12.02;;;15.40;56.90;;;;;;5054904;28;20681;-64
2023/12/01 00:45:13;;;;;;;15.80;12.02;;;15.40;57.10;;;;;;5053475;28;20206;-64
2023/12/01 00:47:38;;;;;;;17.90;12.63;;;15.40;57.00;;;;;;5054014;28;20180;-65
2023/12/01 00:50:04;;;;;;;14.52;11.70;;;15.40;57.00;;;;;;5054024;28;20220;-65
2023/12/01 00:52:31;;;;;;;17.73;12.23;;;15.40;57.00;;;;;;5052719;28;20226;-66
2023/12/01 00:54:56;;;;;;;15.80;12.40;;;15.30;57.00;;;;;;5053199;28;20249;-65
2023/12/01 00:57:22;;;;;;;16.80;12.73;;;15.30;57.00;;;;;;5052962;28;20539;-65
2023/12/01 00:59:48;;;;;;;16.73;12.95;;;15.30;56.90;;;;;;5053026;28;20218;-64
2023/12/01 01:02:13;;;;;;;16.23;11.95;;;15.30;57.10;;;;;;5053358;28;20174;-65
2023/12/01 01:04:39;;;;;;;18.75;12.85;;;15.30;57.00;;;;;;5053891;28;20541;-64
2023/12/01 01:07:05;;;;;;;15.57;11.93;;;15.30;57.10;;;;;;5053145;28;20630;-66
2023/12/01 01:09:30;;;;;;;16.40;12.65;;;15.30;56.90;;;;;;5053451;28;20171;-67
2023/12/01 01:11:56;;;;;;;18.83;12.90;;;15.20;56.80;;;;;;5052899;28;20171;-65
2023/12/01 01:14:21;;;;;;;19.95;13.45;;;15.20;56.90;;;;;;5053217;28;20539;-66
2023/12/01 01:16:47;;;;;;;18.27;13.23;;;15.30;57.00;;;;;;5052349;28;20178;-64
2023/12/01 01:19:12;;;;;;;21.70;14.27;;;15.20;56.90;;;;;;5052022;28;20190;-65
2023/12/01 01:21:38;;;;;;;20.20;14.02;;;15.20;57.00;;;;;;5053217;28;20650;-65
2023/12/01 01:24:03;;;;;;;17.88;13.20;;;15.20;56.90;;;;;;5053477;28;20509;-66
2023/12/01 01:26:29;;;;;;;19.20;14.15;;;15.20;56.90;;;;;;5052215;28;20642;-64
2023/12/01 01:28:55;;;;;;;18.75;13.45;;;15.20;56.90;;;;;;5053316;28;20171;-64
2023/12/01 01:31:20;;;;;;;19.67;14.25;;;15.20;56.90;;;;;;5052932;28;20179;-65
2023/12/01 01:33:46;;;;;;;19.90;13.55;;;15.20;56.90;;;;;;5052622;28;20175;-65
2023/12/01 01:36:11;;;;;;;17.52;13.02;;;15.20;57.00;;;;;;5053350;28;20181;-66
2023/12/01 01:38:37;;;;;;;20.42;14.43;;;15.10;56.90;;;;;;5052979;28;20196;-65
2023/12/01 01:41:03;;;;;;;20.60;14.10;;;15.10;57.00;;;;;;5052339;28;20615;-64
2023/12/01 01:43:29;;;;;;;21.00;14.82;;;15.10;57.00;;;;;;5052721;28;20176;-64
2023/12/01 01:46:02;;;;;;;21.40;14.02;;;15.10;56.90;;;;;;5052939;28;20181;-64
2023/12/01 01:48:28;;;;;;;22.80;15.13;;;15.10;56.90;;;;;;5052158;28;20237;-64
2023/12/01 01:50:54;;;;;;;18.98;13.30;;;15.10;57.00;;;;;;5052902;28;20186;-65
2023/12/01 01:53:19;;;;;;;23.55;15.52;;;15.10;57.00;;;;;;5051308;28;20171;-65
2023/12/01 01:55:45;;;;;;;18.73;13.73;;;15.10;56.90;;;;;;5052149;28;20229;-65
2023/12/01 01:58:12;;;;;;;18.75;13.93;;;15.00;57.00;;;;;;5051527;28;20217;-64
2023/12/01 02:00:38;;;;;;;20.52;14.13;;;15.00;57.00;;;;;;5052591;28;20214;-65
2023/12/01 02:03:06;;;;;;;18.85;13.98;;;15.00;57.00;;;;;;5051473;28;20186;-65
2023/12/01 02:05:34;;;;;;;19.63;13.75;;;15.00;57.00;;;;;;5051851;28;20184;-64
2023/12/01 02:08:22;;;;;;;20.27;14.05;;;15.00;57.00;;;;;;5050633;28;20237;-66
2023/12/01 02:10:48;;;;;;;21.63;14.02;;;15.00;57.00;;;;;;5051705;28;20167;-65
2023/12/01 02:13:14;;;;;;;20.45;14.98;;;15.00;57.00;;;;;;5052288;28;20239;-65
2023/12/01 02:15:43;;;;;;;21.20;14.32;;;15.00;57.00;;;;;;5050730;28;20602;-65
2023/12/01 02:18:18;;;;;;;21.05;14.40;;;15.00;57.00;;;;;;5052342;28;20564;-64
2023/12/01 02:20:44;;;;;;;22.02;15.23;;;15.00;57.00;;;;;;5052325;28;20215;-64
2023/12/01 02:23:09;;;;;;;19.95;14.02;;;15.00;57.00;;;;;;5051779;28;20630;-65
2023/12/01 02:25:35;;;;;;;18.90;14.38;;;15.00;57.00;;;;;;5052138;28;20673;-64
2023/12/01 02:28:01;;;;;;;19.38;14.27;;;15.00;57.00;;;;;;5052000;28;20666;-65
2023/12/01 02:30:27;;;;;;;21.65;15.25;;;14.90;57.00;;;;;;5050842;28;20194;-64
2023/12/01 02:32:52;;;;;;;20.35;15.23;;;15.00;57.00;;;;;;5051892;28;20183;-64
2023/12/01 02:35:18;;;;;;;21.05;15.02;;;14.90;57.00;;;;;;5051794;28;20186;-65
2023/12/01 02:37:43;;;;;;;22.98;15.52;;;14.90;57.00;;;;;;5051513;28;20171;-65
2023/12/01 02:40:15;;;;;;;21.17;15.25;;;14.90;57.00;;;;;;5050729;28;20218;-66
2023/12/01 02:42:48;;;;;;;21.05;14.50;;;14.90;57.00;;;;;;5052225;28;20270;-64
2023/12/01 02:45:13;;;;;;;21.13;15.30;;;14.90;57.00;;;;;;5051037;28;20190;-64
2023/12/01 02:47:39;;;;;;;20.88;15.30;;;14.90;57.00;;;;;;5051924;28;20182;-63
2023/12/01 02:50:09;;;;;;;19.33;14.20;;;14.80;57.00;;;;;;5052053;28;20263;-65
2023/12/01 02:52:36;;;;;;;20.33;14.93;;;14.80;57.00;;;;;;5050829;28;20226;-65
2023/12/01 02:55:01;;;;;;;19.60;14.57;;;14.90;57.00;;;;;;5052179;28;20629;-64
2023/12/01 02:57:27;;;;;;;18.85;14.57;;;14.80;57.60;;;;;;5050875;28;20725;-65
2023/12/01 02:59:52;;;;;;;19.45;14.48;;;14.80;57.00;;;;;;5051859;28;20207;-64
2023/12/01 03:02:18;;;;;;;19.45;14.40;;;14.80;57.10;;;;;;5051683;28;20171;-64
2023/12/01 03:04:43;;;;;;;19.60;14.20;;;14.80;57.10;;;;;;5051174;28;20282;-65
2023/12/01 03:07:09;;;;;;;20.23;14.77;;;14.80;57.00;;;;;;5051855;28;20263;-65
2023/12/01 03:09:34;;;;;;;19.48;14.85;;;14.80;57.10;;;;;;5051750;28;20169;-66
2023/12/01 03:12:00;;;;;;;20.55;15.18;;;14.80;57.10;;;;;;5051191;28;20605;-65
2023/12/01 03:14:25;;;;;;;18.05;14.48;;;14.80;57.10;;;;;;5051480;28;20756;-65
2023/12/01 03:16:51;;;;;;;17.40;13.20;;;14.80;57.10;;;;;;5051803;28;20224;-64
2023/12/01 03:19:17;;;;;;;17.02;13.52;;;14.80;57.10;;;;;;5050638;28;20638;-64
2023/12/01 03:21:43;;;;;;;17.33;13.85;;;14.80;57.10;;;;;;5053244;28;20183;-65
2023/12/01 03:24:09;;;;;;;19.08;14.40;;;14.60;57.00;;;;;;5053035;28;20256;-65
2023/12/01 03:26:35;;;;;;;17.13;13.65;;;14.80;57.10;;;;;;5050741;28;20590;-64
2023/12/01 03:29:01;;;;;;;17.83;13.50;;;14.70;57.10;;;;;;5051726;28;20183;-64
2023/12/01 03:31:27;;;;;;;18.48;14.02;;;14.80;57.10;;;;;;5051399;28;20202;-64
2023/12/01 03:33:52;;;;;;;18.85;14.55;;;14.80;57.10;;;;;;5051001;28;20209;-65
2023/12/01 03:36:18;;;;;;;17.98;14.00;;;14.70;57.20;;;;;;5051191;28;20201;-65
2023/12/01 03:38:43;;;;;;;18.85;13.77;;;14.70;57.10;;;;;;5052198;28;20179;-65
2023/12/01 03:41:09;;;;;;;18.98;14.90;;;14.70;57.10;;;;;;5054741;28;20226;-64
2023/12/01 03:43:34;;;;;;;17.98;13.43;;;14.70;57.10;;;;;;5055043;28;20525;-64
2023/12/01 03:46:00;;;;;;;19.88;14.27;;;14.70;57.10;;;;;;5055268;28;20260;-64
2023/12/01 03:48:26;;;;;;;19.02;13.68;;;14.70;57.10;;;;;;5054310;28;20581;-64
2023/12/01 03:50:51;;;;;;;19.63;14.32;;;14.70;57.10;;;;;;5054900;28;20183;-64
2023/12/01 03:53:19;;;;;;;19.08;14.43;;;14.70;57.20;;;;;;5055065;28;20179;-65
2023/12/01 03:55:45;;;;;;;18.20;13.32;;;14.70;57.20;;;;;;5054524;28;20176;-65
2023/12/01 03:58:10;;;;;;;16.88;12.98;;;14.70;57.20;;;;;;5055138;28;20565;-66
2023/12/01 04:00:37;;;;;;;16.23;13.20;;;14.60;57.10;;;;;;5054607;28;20207;-64
2023/12/01 04:03:02;;;;;;;17.63;13.75;;;14.60;57.10;;;;;;5054240;28;20176;-65
2023/12/01 04:05:28;;;;;;;16.73;13.57;;;14.60;57.20;;;;;;5054486;28;20205;-64
2023/12/01 04:07:53;;;;;;;15.45;12.48;;;14.60;57.20;;;;;;5054381;28;20536;-66
2023/12/01 04:10:19;;;;;;;17.88;13.23;;;14.60;57.20;;;;;;5054658;28;20544;-66
2023/12/01 04:12:45;;;;;;;15.70;12.77;;;14.60;57.40;;;;;;5054901;28;20182;-64
2023/12/01 04:15:14;;;;;;;18.15;13.68;;;14.60;57.20;;;;;;5054038;28;20175;-65
2023/12/01 04:17:44;;;;;;;15.40;12.55;;;14.60;57.20;;;;;;5054574;28;20175;-64
2023/12/01 04:20:25;;;;;;;14.63;12.07;;;14.60;57.30;;;;;;5054439;28;20583;-65
2023/12/01 04:22:58;;;;;;;16.45;13.48;;;14.60;57.30;;;;;;5054057;28;20201;-65
2023/12/01 04:25:24;;;;;;;16.95;13.15;;;14.60;57.30;;;;;;5054291;28;20261;-65
2023/12/01 04:27:50;;;;;;;16.67;13.27;;;14.60;57.30;;;;;;5054456;28;20357;-65
2023/12/01 04:30:17;;;;;;;16.35;13.13;;;14.60;57.30;;;;;;5053247;28;20597;-64
2023/12/01 04:32:47;;;;;;;16.52;13.38;;;14.50;57.30;;;;;;5054354;28;20656;-64
2023/12/01 04:35:12;;;;;;;18.40;13.73;;;14.50;57.30;;;;;;5054223;28;20194;-65
2023/12/01 04:37:42;;;;;;;15.65;12.50;;;14.50;57.30;;;;;;5053414;28;20180;-65
2023/12/01 04:40:14;;;;;;;16.55;12.82;;;14.50;57.30;;;;;;5054208;28;20215;-65
2023/12/01 04:42:44;;;;;;;14.40;11.65;;;14.50;57.30;;;;;;5054249;28;20175;-64
2023/12/01 04:45:13;;;;;;;16.83;13.30;;;14.50;57.30;;;;;;5053343;28;20203;-65
2023/12/01 04:47:40;;;;;;;17.85;13.13;;;14.50;57.30;;;;;;5054317;28;20258;-64
2023/12/01 04:50:14;;;;;;;15.15;12.82;;;14.50;57.40;;;;;;5053092;28;20182;-65
2023/12/01 04:52:50;;;;;;;16.90;12.88;;;14.50;57.30;;;;;;5053785;28;20594;-65
2023/12/01 04:55:17;;;;;;;15.20;13.27;;;14.50;57.40;;;;;;5053664;28;20179;-64
2023/12/01 04:57:43;;;;;;;17.25;13.18;;;14.50;57.40;;;;;;5053375;28;20207;-65
2023/12/01 05:00:22;;;;;;;16.40;12.43;;;14.40;57.30;;;;;;5053925;28;20316;-65
2023/12/01 05:03:06;;;;;;;16.63;13.10;;;14.40;57.40;;;;;;5053984;28;20186;-65
2023/12/01 05:05:34;;;;;;;18.25;14.35;;;14.50;57.40;;;;;;5052838;28;20187;-65
2023/12/01 05:08:04;;;;;;;15.40;13.02;;;14.40;57.40;;;;;;5053571;28;20176;-65
2023/12/01 05:10:30;;;;;;;16.83;12.82;;;14.40;57.40;;;;;;5053545;28;20669;-66
2023/12/01 05:12:57;;;;;;;16.67;12.52;;;14.40;57.40;;;;;;5052788;28;20645;-65
2023/12/01 05:15:24;;;;;;;16.23;12.38;;;14.40;57.50;;;;;;5053232;28;20546;-65
2023/12/01 05:18:04;;;;;;;16.88;13.18;;;14.40;57.40;;;;;;5053576;28;20250;-65
2023/12/01 05:20:30;;;;;;;16.83;13.63;;;14.40;57.50;;;;;;5053019;28;20742;-64
2023/12/01 05:23:00;;;;;;;17.80;15.00;;;14.40;57.50;;;;;;5053664;28;20176;-66
2023/12/01 05:25:26;;;;;;;16.15;12.95;;;14.40;57.50;;;;;;5052621;28;20190;-65
2023/12/01 05:27:52;;;;;;;15.60;12.32;;;14.40;57.50;;;;;;5053491;28;20187;-64
2023/12/01 05:30:19;;;;;;;16.35;12.98;;;14.30;57.40;;;;;;5053059;28;20305;-65
2023/12/01 05:32:48;;;;;;;18.10;13.95;;;14.40;57.60;;;;;;5052447;28;20638;-64
2023/12/01 05:35:15;;;;;;;16.85;13.38;;;14.30;57.50;;;;;;5053066;28;20689;-65
2023/12/01 05:37:41;;;;;;;16.45;13.68;;;14.40;57.60;;;;;;5053135;28;20174;-65
2023/12/01 05:40:08;;;;;;;18.58;13.73;;;14.30;57.50;;;;;;5052400;28;20206;-65
2023/12/01 05:42:34;;;;;;;16.42;12.77;;;14.30;57.60;;;;;;5052439;28;20198;-64
2023/12/01 05:44:59;;;;;;;14.80;11.93;;;14.30;57.60;;;;;;5053084;28;20175;-63
2023/12/01 05:47:25;;;;;;;14.73;12.45;;;14.30;57.40;;;;;;5051971;28;20175;-63
2023/12/01 05:49:50;;;;;;;16.63;13.23;;;14.30;57.70;;;;;;5052799;28;20278;-64
2023/12/01 05:52:16;;;;;;;16.35;13.05;;;14.30;58.20;;;;;;5052318;28;20727;-65
2023/12/01 05:54:42;;;;;;;16.45;13.30;;;14.30;57.60;;;;;;5052025;28;20181;-65
2023/12/01 05:57:08;;;;;;;14.45;11.95;;;14.30;57.60;;;;;;5054024;28;20177;-64
2023/12/01 05:59:34;;;;;;;17.95;13.23;;;14.30;57.70;;;;;;5053003;28;20183;-64
2023/12/01 06:01:59;;;;;;;14.82;11.85;;;14.30;57.50;;;;;;5051545;28;20252;-63
2023/12/01 06:04:25;;;;;;;16.25;13.40;;;14.20;57.60;;;;;;5052599;28;20646;-64
2023/12/01 06:06:51;;;;;;;14.45;12.20;;;14.30;57.70;;;;;;5052610;28;20618;-66
2023/12/01 06:09:17;;;;;;;13.15;11.25;;;14.30;57.80;;;;;;5051703;28;20262;-65
2023/12/01 06:11:43;;;;;;;14.45;11.32;;;14.30;57.90;;;;;;5052706;28;20171;-65
2023/12/01 06:14:08;;;;;;;15.55;11.50;;;14.30;57.70;;;;;;5052392;28;20266;-65
2023/12/01 06:16:34;;;;;;;13.65;11.10;;;14.30;57.60;;;;;;5051414;28;20186;-63
2023/12/01 06:18:59;;;;;;;13.77;11.00;;;14.40;57.60;;;;;;5052545;28;20206;-64
2023/12/01 06:21:25;;;;;;;14.13;11.05;;;14.50;57.60;;;;;;5051418;28;20237;-64
2023/12/01 06:23:50;;;;;;;13.57;10.85;;;14.60;57.80;;;;;;5052304;28;20529;-66
2023/12/01 06:26:16;;;;;;;12.52;10.27;;;14.70;57.90;;;;;;5051937;28;20173;-65
2023/12/01 06:28:41;;;;;;;13.65;10.77;;;14.80;57.80;;;;;;5051564;28;20224;-64
2023/12/01 06:31:07;;;;;;;10.52;8.98;;;14.90;57.70;;;;;;5052254;28;20183;-64
2023/12/01 06:33:32;;;;;;;10.00;9.00;;;15.10;57.50;;;;;;5051774;28;20622;-64
2023/12/01 06:35:58;;;;;;;10.75;9.20;;;15.30;57.30;;;;;;5051733;28;20248;-65
2023/12/01 06:38:24;;;;;;;10.43;9.10;;;15.40;56.90;;;;;;5051866;28;20262;-65
2023/12/01 06:40:50;;;;;;;11.85;9.57;;;15.60;56.90;;;;;;5051942;28;20708;-64
2023/12/01 06:43:15;;;;;;;10.25;8.75;;;15.60;56.70;;;;;;5051071;28;20186;-64
2023/12/01 06:45:41;;;;;;;9.98;8.13;;;15.70;56.60;;;;;;5052050;28;20186;-63
2023/12/01 06:48:07;;;;;;;9.43;8.43;;;15.70;56.50;;;;;;5051946;28;20175;-65
2023/12/01 06:50:33;;;;;;;9.63;8.35;;;15.80;56.50;;;;;;5051163;28;20532;-65
2023/12/01 06:52:59;;;;;;;8.98;8.07;;;15.80;56.50;;;;;;5051775;28;20690;-65
2023/12/01 06:55:24;;;;;;;9.30;7.82;;;15.80;56.50;;;;;;5051666;28;20309;-65
2023/12/01 06:57:50;;;;;;;7.97;7.15;;;15.80;56.50;;;;;;5051110;28;20209;-64
2023/12/01 07:00:29;;;;;;;9.57;7.90;;;15.80;56.50;;;;;;5051504;28;20314;-65
2023/12/01 07:02:56;;;;;;;8.93;7.72;;;15.80;56.50;;;;;;5052095;28;20173;-65
2023/12/01 07:05:32;;;;;;;8.95;7.70;;;15.90;56.50;;;;;;5051001;28;20191;-64
2023/12/01 07:07:58;;;;;;;9.00;7.88;;;15.90;56.50;;;;;;5051746;28;20241;-66
2023/12/01 07:10:24;;;;;;;10.07;7.90;;;16.00;56.40;;;;;;5051482;28;20513;-65
2023/12/01 07:12:50;;;;;;;8.13;6.97;;;16.10;56.20;;;;;;5051014;28;20199;-65
2023/12/01 07:15:20;;;;;;;8.77;7.65;;;16.30;55.90;;;;;;5054546;28;20237;-65
2023/12/01 07:17:50;;;;;;;7.85;6.97;;;16.50;55.70;;;;;;5055061;28;20656;-64
2023/12/01 07:20:18;;;;;;;8.23;7.05;;;16.60;55.30;;;;;;5054276;28;20211;-65
2023/12/01 07:22:46;;;;;;;7.53;6.70;;;16.80;55.10;;;;;;5055747;28;20178;-65
2023/12/01 07:25:21;;;;;;;8.43;6.97;;;16.90;55.00;;;;;;5054945;28;20207;-65
2023/12/01 07:27:50;;;;;;;8.57;7.30;;;16.90;54.90;;;;;;5055865;28;20167;-65
2023/12/01 07:30:16;;;;;;;7.75;6.95;;;17.00;54.80;;;;;;5055406;28;20183;-65
2023/12/01 07:32:43;;;;;;;7.00;6.30;;;17.10;54.70;;;;;;5054786;28;20179;-65
2023/12/01 07:35:09;;;;;;;7.38;6.47;;;17.10;54.50;;;;;;5055425;28;20186;-66
2023/12/01 07:37:35;;;;;;;7.18;6.38;;;17.20;54.40;;;;;;5055130;28;20175;-65
2023/12/01 07:40:01;;;;;;;7.43;6.40;;;17.20;54.40;;;;;;5054596;28;20693;-65
2023/12/01 07:42:26;;;;;;;6.43;5.82;;;17.30;54.30;;;;;;5055300;28;20499;-63
2023/12/01 07:44:52;;;;;;;7.47;6.60;;;17.30;54.30;;;;;;5055253;28;20771;-64
2023/12/01 07:47:17;;;;;;;6.97;6.28;;;17.20;54.30;;;;;;5054175;28;20172;-64
2023/12/01 07:49:43;;;;;;;7.38;6.55;;;17.20;54.30;;;;;;5055110;28;20301;-64
2023/12/01 07:52:08;;;;;;;6.28;5.63;;;17.30;54.30;;;;;;5054984;28;20313;-64
2023/12/01 07:54:35;;;;;;;7.50;5.97;;;17.20;54.30;;;;;;5054166;28;20385;-64
2023/12/01 07:57:00;;;;;;;6.85;5.82;;;17.20;54.40;;;;;;5054892;28;20170;-65
2023/12/01 07:59:27;;;;;;;6.75;6.07;;;17.20;54.40;;;;;;5054757;28;20183;-64
2023/12/01 08:01:53;;;;;;;6.63;5.97;;;17.20;54.40;;;;;;5054328;28;20215;-64
2023/12/01 08:04:19;;;;;;;6.78;6.05;;;17.10;54.40;;;;;;5054569;28;20178;-65
2023/12/01 08:06:44;;;;;;;6.65;5.95;;;17.10;54.60;;;;;;5054798;28;20175;-65
2023/12/01 08:09:12;;;;;;;7.13;5.90;;;17.20;54.60;;;;;;5053983;28;20171;-66
2023/12/01 08:11:40;;;;;;;6.25;5.65;;;17.10;54.50;;;;;;5053524;28;20179;-65
2023/12/01 08:14:05;;;;;;;6.72;5.93;;;17.20;54.50;;;;;;5054105;28;20167;-65
2023/12/01 08:16:31;;;;;;;6.10;5.40;;;17.10;54.60;;;;;;5054456;28;20236;-65
2023/12/01 08:18:58;;;;;;;6.38;5.22;;;17.10;54.60;;;;;;5054561;28;20696;-64
2023/12/01 08:21:24;;;;;;;6.10;5.47;;;17.10;54.60;;;;;;5053507;28;20293;-66
2023/12/01 08:23:49;;;;;;;6.70;6.10;;;17.10;54.70;;;;;;5054529;28;20633;-65
2023/12/01 08:26:15;;;;;;;6.05;5.45;;;17.10;54.70;;;;;;5053970;28;20183;-64
2023/12/01 08:28:40;;;;;;;6.95;5.53;;;17.10;54.60;;;;;;5053839;28;20177;-65
2023/12/01 08:31:06;;;;;;;5.85;5.18;;;17.10;54.60;;;;;;5054351;28;20187;-64
2023/12/01 08:33:35;;;;;;;6.38;5.25;;;17.10;54.80;;;;;;5054978;28;20178;-65
2023/12/01 08:36:01;;;;;;;6.55;5.32;;;17.00;54.60;;;;;;5055050;28;20656;-66
2023/12/01 08:38:27;;;;;;;6.50;5.57;;;17.00;54.90;;;;;;5054259;28;20175;-64
2023/12/01 08:40:52;;;;;;;6.70;5.90;;;17.00;54.80;;;;;;5054114;28;20610;-64
2023/12/01 08:43:18;;;;;;;5.70;5.07;;;17.00;54.80;;;;;;5053139;28;20619;-64
2023/12/01 08:45:46;;;;;;;6.25;5.45;;;17.00;54.90;;;;;;5054313;28;20305;-64
2023/12/01 08:48:12;;;;;;;6.63;5.50;;;17.00;55.00;;;;;;5054154;28;20186;-64
2023/12/01 08:50:37;;;;;;;6.85;6.03;;;16.90;54.90;;;;;;5052907;28;20191;-64
2023/12/01 08:53:03;;;;;;;6.40;5.70;;;16.90;55.00;;;;;;5053917;28;20183;-65
2023/12/01 08:55:28;;;;;;;5.88;5.15;;;16.90;54.90;;;;;;5053576;28;20212;-64
2023/12/01 08:57:54;;;;;;;6.68;5.55;;;16.90;54.90;;;;;;5053160;28;20196;-65
2023/12/01 09:00:20;;;;;;;5.80;5.20;;;17.00;55.00;;;;;;5053654;28;20210;-65
2023/12/01 09:02:48;;;;;;;6.28;5.38;;;17.00;55.00;;;;;;5053915;28;20226;-63
2023/12/01 09:05:14;;;;;;;5.28;4.68;;;16.90;54.80;;;;;;5053061;28;20183;-66
2023/12/01 09:07:39;;;;;;;5.97;5.38;;;16.90;54.60;;;;;;5053596;28;20171;-65
2023/12/01 09:10:05;;;;;;;5.60;5.10;;;16.90;55.00;;;;;;5053620;28;20187;-67
2023/12/01 09:12:31;;;;;;;5.75;5.15;;;16.90;55.10;;;;;;5052908;28;20182;-64
2023/12/01 09:14:57;;;;;;;5.18;4.68;;;16.90;55.10;;;;;;5053455;28;20171;-65
2023/12/01 09:17:22;;;;;;;6.00;5.32;;;16.90;55.20;;;;;;5052507;28;20175;-66
2023/12/01 09:19:48;;;;;;;6.07;5.03;;;16.90;55.20;;;;;;5053427;28;20175;-65
2023/12/01 09:22:16;;;;;;;5.63;5.00;;;16.80;55.20;;;;;;5053370;28;20201;-66
2023/12/01 09:24:42;;;;;;;5.82;5.22;;;16.80;55.20;;;;;;5052877;28;20262;-66
2023/12/01 09:27:08;;;;;;;4.75;4.35;;;16.70;55.80;;;;;;5053524;28;20253;-65
2023/12/01 09:29:33;;;;;;;5.88;5.03;;;16.60;55.40;;;;;;5053088;28;20167;-66
2023/12/01 09:32:00;;;;;;;5.68;5.07;;;16.50;55.40;;;;;;5052649;28;20175;-65
2023/12/01 09:34:25;;;;;;;5.20;4.70;;;16.50;55.40;;;;;;5052859;28;20709;-65
2023/12/01 09:36:51;;;;;;;5.78;5.07;;;16.50;55.40;;;;;;5052463;28;20270;-66
2023/12/01 09:39:16;;;;;;;5.63;5.10;;;16.50;55.60;;;;;;5052338;28;20175;-66
2023/12/01 09:41:42;;;;;;;5.28;4.78;;;16.50;55.90;;;;;;5053127;28;20622;-65
2023/12/01 09:44:07;;;;;;;5.55;5.05;;;16.50;55.90;;;;;;5051835;28;20705;-64
2023/12/01 09:46:35;;;;;;;4.93;4.43;;;16.50;55.80;;;;;;5052084;28;21063;-65
2023/12/01 09:49:05;;;;;;;6.35;4.90;;;16.50;55.90;;;;;;5052918;28;20181;-65
2023/12/01 09:51:36;;;;;;;5.07;4.57;;;16.50;55.80;;;;;;5052307;28;20231;-65
2023/12/01 09:54:04;;;;;;;5.40;4.88;;;16.60;55.90;;;;;;5052145;28;20206;-65
2023/12/01 09:56:30;;;;;;;5.70;4.90;;;16.60;55.90;;;;;;5052679;28;20262;-65
2023/12/01 09:58:56;;;;;;;5.68;5.13;;;16.60;55.80;;;;;;5052707;28;20787;-65
2023/12/01 10:01:24;;;;;;;5.03;4.53;;;16.60;55.70;;;;;;5051646;28;20211;-65
2023/12/01 10:03:50;;;;;;;5.45;4.30;;;16.60;55.70;;;;;;5052607;28;20174;-65
2023/12/01 10:06:16;;;;;;;6.32;4.70;;;16.60;55.70;;;;;;5052482;28;20183;-66
2023/12/01 10:08:41;;;;;;;4.72;4.22;;;16.60;55.70;;;;;;5052072;28;20179;-66
2023/12/01 10:11:23;;;;;;;4.78;4.13;;;16.60;55.70;;;;;;5052657;28;20528;-67
2023/12/01 10:13:52;;;;;;;5.03;4.53;;;16.60;55.70;;;;;;5051695;28;20204;-66
2023/12/01 10:16:18;;;;;;;5.15;4.65;;;16.50;55.90;;;;;;5051997;28;20183;-65
2023/12/01 10:18:59;;;;;;;4.72;4.22;;;16.40;55.90;;;;;;5052693;28;20210;-65
2023/12/01 10:21:43;;;;;;;5.75;4.25;;;16.40;56.00;;;;;;5051402;28;20268;-65
2023/12/01 10:24:16;;;;;;;5.15;4.65;;;16.30;56.10;;;;;;5052422;28;20175;-65
2023/12/01 10:26:42;;;;;;;4.85;4.35;;;16.30;56.00;;;;;;5052261;28;20186;-65
2023/12/01 10:29:27;;;;;;;5.88;4.95;;;16.30;56.00;;;;;;5051598;28;20778;-65
2023/12/01 10:31:53;;;;;;;5.60;4.63;;;16.40;55.80;;;;;;5052468;28;20178;-65
2023/12/01 10:34:18;;;;;;;4.75;4.20;;;16.40;55.90;;;;;;5050853;28;20250;-66
2023/12/01 10:36:44;;;;;;;5.72;4.63;;;16.30;55.80;;;;;;5050155;28;20634;-65
2023/12/01 10:39:10;;;;;;;5.15;4.65;;;16.40;55.70;;;;;;5052035;28;20178;-66
2023/12/01 10:41:39;;;;;;;5.05;4.40;;;16.40;55.90;;;;;;5044360;28;20313;-65
2023/12/01 10:44:05;;;;;;;4.97;4.45;;;16.40;55.90;;;;;;5050785;28;20666;-65
2023/12/01 10:46:30;;;;;;;4.97;4.45;;;16.40;55.80;;;;;;5050669;28;20214;-64
2023/12/01 10:48:56;;;;;;;5.05;4.40;;;16.40;55.70;;;;;;5049987;28;20171;-65
2023/12/01 10:51:21;;;;;;;5.15;4.65;;;16.40;55.80;;;;;;5050306;28;20241;-65
2023/12/01 10:53:47;;;;;;;4.35;3.95;;;16.40;56.00;;;;;;5050756;28;20171;-66
2023/12/01 10:56:13;;;;;;;6.10;5.03;;;16.30;55.90;;;;;;5050191;28;20179;-66
2023/12/01 10:58:38;;;;;;;5.00;4.50;;;16.20;56.00;;;;;;5052254;28;20172;-65
2023/12/01 11:01:04;;;;;;;5.30;4.80;;;16.20;55.80;;;;;;5050523;28;20257;-65
2023/12/01 11:03:30;;;;;;;5.28;4.70;;;16.20;55.90;;;;;;5050827;28;20182;-66
2023/12/01 11:06:07;;;;;;;4.10;3.67;;;16.20;56.00;;;;;;5051872;28;20179;-66
2023/12/01 11:08:58;;;;;;;4.57;4.18;;;16.30;56.10;;;;;;5050583;28;20183;-66
2023/12/01 11:11:41;;;;;;;4.95;4.53;;;16.30;55.80;;;;;;5051018;28;20262;-66
2023/12/01 11:14:17;;;;;;;5.28;4.78;;;16.30;55.90;;;;;;5051870;28;20218;-65
2023/12/01 11:16:42;;;;;;;4.95;4.45;;;16.30;55.70;;;;;;5050501;28;20220;-64
2023/12/01 11:19:09;;;;;;;6.20;4.53;;;16.30;55.80;;;;;;5051322;28;20179;-65
2023/12/01 11:21:35;;;;;;;4.85;4.32;;;16.20;55.80;;;;;;5051465;28;20214;-67
2023/12/01 11:24:24;;;;;;;4.65;3.90;;;16.20;55.90;;;;;;5050979;28;20524;-65
2023/12/01 11:26:51;;;;;;;4.25;3.85;;;16.10;56.10;;;;;;5051801;28;20171;-65
2023/12/01 11:29:35;;;;;;;5.57;4.72;;;16.10;56.20;;;;;;5051501;28;20179;-64
2023/12/01 11:32:00;;;;;;;4.32;3.92;;;16.00;56.20;;;;;;5051118;28;20229;-66
2023/12/01 11:34:26;;;;;;;5.72;4.85;;;16.10;56.40;;;;;;5051475;28;20168;-65
2023/12/01 11:36:55;;;;;;;4.78;4.18;;;16.00;56.30;;;;;;5051622;28;20171;-65
2023/12/01 11:39:27;;;;;;;4.82;4.32;;;16.10;56.30;;;;;;5050480;28;20700;-65
2023/12/01 11:41:59;;;;;;;5.15;4.65;;;16.10;56.30;;;;;;5051734;28;20299;-64
2023/12/01 11:44:30;;;;;;;5.10;4.25;;;16.20;56.30;;;;;;5051094;28;20661;-63
2023/12/01 11:46:57;;;;;;;5.32;4.18;;;16.20;56.20;;;;;;5050834;28;20179;-65
2023/12/01 11:49:41;;;;;;;5.88;4.70;;;16.20;56.20;;;;;;5051144;28;20187;-64
2023/12/01 11:52:10;;;;;;;4.40;4.00;;;16.20;56.10;;;;;;5050527;28;20226;-66
2023/12/01 11:54:36;;;;;;;5.50;4.43;;;16.10;56.20;;;;;;5051204;28;20266;-65
2023/12/01 11:57:20;;;;;;;4.60;4.20;;;16.10;56.30;;;;;;5051604;28;20278;-65
2023/12/01 11:59:46;;;;;;;4.72;4.30;;;16.00;56.30;;;;;;5051114;28;20630;-64
2023/12/01 12:02:14;;;;;;;5.07;4.57;;;16.00;56.30;;;;;;5054962;28;20250;-65
2023/12/01 12:04:39;;;;;;;4.95;4.45;;;16.00;56.30;;;;;;5054855;28;20182;-65
2023/12/01 12:07:06;;;;;;;5.22;4.60;;;16.00;56.40;;;;;;5054391;28;20183;-65
2023/12/01 12:09:32;;;;;;;5.57;4.47;;;16.00;56.30;;;;;;5054790;28;20181;-66
2023/12/01 12:11:59;;;;;;;4.65;4.20;;;16.00;56.30;;;;;;5054811;28;20540;-65
2023/12/01 12:14:28;;;;;;;5.20;4.50;;;16.10;56.40;;;;;;5053732;28;20232;-65
2023/12/01 12:16:54;;;;;;;4.93;4.43;;;16.10;56.10;;;;;;5054715;28;20598;-65
2023/12/01 12:19:20;;;;;;;4.93;4.53;;;16.10;56.10;;;;;;5054066;28;20266;-65
2023/12/01 12:21:46;;;;;;;4.47;4.07;;;16.20;56.10;;;;;;5053726;28;20638;-65
2023/12/01 12:24:12;;;;;;;4.55;4.15;;;16.20;56.00;;;;;;5053418;28;20178;-66
2023/12/01 12:26:37;;;;;;;4.82;4.43;;;16.10;56.00;;;;;;5054376;28;20317;-65
2023/12/01 12:29:04;;;;;;;5.80;4.85;;;16.10;56.10;;;;;;5052623;28;20178;-64
2023/12/01 12:31:31;;;;;;;5.90;4.93;;;16.00;56.10;;;;;;5054022;28;20304;-65
2023/12/01 12:33:57;;;;;;;4.60;4.10;;;16.00;56.20;;;;;;5054344;28;20258;-65
2023/12/01 12:36:26;;;;;;;4.68;4.13;;;16.00;56.40;;;;;;5053587;28;20229;-66